Naruna, Texas
Current Conditions -  °F | °C
As of 10:15 PM on Tuesday 21 Oct 2014 (Local Time) from KLZZ Reporting Station
Clear Clear  
Wind Chill: 63°   Ceiling: Unl
Heat Index: 63°   Visibility: 10mi
Dew Point: 51°   Wind: 0mph
Humidity: 65%   Direction: NA
Pressure: 30.07"   Gusts: NA
Location:  31.1064°N, 98.2303°W
Report Text: KLZZ 220315Z AUTO 00000KT 10SM CLR 17/11 A3007 RMK AO2 T01710105
Loading
Personal Weather Stations






























Interactive Weather Map
Tropical Storm Tracking
New forecast layout! Learn more

10-Day Weather Forecast

Advertisements
Track Severe Weather on mobile